createdAt,value
2022-12-18T00:01:27.386Z,72.30
2022-12-18T00:03:56.603Z,72.33
2022-12-18T00:06:25.794Z,72.20
2022-12-18T00:08:55.255Z,72.34
2022-12-18T00:11:25.125Z,72.30
2022-12-18T00:13:55.189Z,72.27
2022-12-18T00:16:25.593Z,72.31
2022-12-18T00:18:55.391Z,72.23
2022-12-18T00:21:22.937Z,72.16
2022-12-18T00:23:51.631Z,72.09
2022-12-18T00:26:35.051Z,72.03
2022-12-18T00:29:06.635Z,72.02
2022-12-18T00:31:35.061Z,72.15
2022-12-18T00:34:03.837Z,72.29
2022-12-18T00:36:34.313Z,72.38
2022-12-18T00:39:04.862Z,72.41
2022-12-18T00:41:49.171Z,72.54
2022-12-18T00:44:18.632Z,72.43
2022-12-18T00:46:47.698Z,72.30
2022-12-18T00:49:17.724Z,72.33
2022-12-18T00:51:45.231Z,72.41
2022-12-18T00:54:13.433Z,72.38
2022-12-18T00:56:48.326Z,72.40
2022-12-18T00:59:17.652Z,72.30
2022-12-18T01:01:46.414Z,72.38
2022-12-18T01:04:14.831Z,72.25
2022-12-18T01:06:42.313Z,72.21
2022-12-18T01:09:09.803Z,72.26
2022-12-18T01:11:37.483Z,72.23
2022-12-18T01:14:05.631Z,72.31
2022-12-18T01:16:33.166Z,72.35
2022-12-18T01:19:00.691Z,72.33
2022-12-18T01:21:28.429Z,72.43
2022-12-18T01:23:57.170Z,72.25
2022-12-18T01:26:26.091Z,72.35
2022-12-18T01:28:57.256Z,72.25
2022-12-18T01:31:30.939Z,72.31
2022-12-18T01:34:01.471Z,72.37
2022-12-18T01:36:31.962Z,72.38
2022-12-18T01:39:05.680Z,72.44
2022-12-18T01:41:50.511Z,72.22
2022-12-18T01:44:49.955Z,72.38
2022-12-18T01:47:41.955Z,72.30
2022-12-18T01:50:17.637Z,72.26
2022-12-18T01:52:49.432Z,72.35
2022-12-18T01:55:20.734Z,72.36
2022-12-18T01:57:49.042Z,72.32
2022-12-18T02:00:20.803Z,72.51
2022-12-18T02:02:49.275Z,72.43
2022-12-18T02:05:30.621Z,72.37
2022-12-18T02:08:10.206Z,72.26
2022-12-18T02:10:59.839Z,72.41
2022-12-18T02:13:39.499Z,72.55
2022-12-18T02:16:29.401Z,72.62
2022-12-18T02:19:00.048Z,72.67
2022-12-18T02:21:49.523Z,72.56
2022-12-18T02:24:36.485Z,72.47
2022-12-18T02:27:07.520Z,72.58
2022-12-18T02:29:45.031Z,72.59
2022-12-18T02:32:21.094Z,72.60
2022-12-18T02:34:51.696Z,72.47
2022-12-18T02:37:20.779Z,72.41
2022-12-18T02:39:50.118Z,72.44
2022-12-18T02:42:19.634Z,72.42
2022-12-18T02:44:50.232Z,72.36
2022-12-18T02:47:20.333Z,72.21
2022-12-18T02:50:27.106Z,72.37
2022-12-18T02:53:22.137Z,72.35
2022-12-18T02:56:11.842Z,72.33
2022-12-18T02:59:03.119Z,72.29
2022-12-18T03:01:53.263Z,72.16
2022-12-18T03:04:30.591Z,72.31
2022-12-18T03:07:03.772Z,72.45
2022-12-18T03:09:42.998Z,72.43
2022-12-18T03:12:27.762Z,72.43
2022-12-18T03:15:27.311Z,72.56
2022-12-18T03:18:04.141Z,72.60
2022-12-18T03:20:35.179Z,72.51
2022-12-18T03:23:12.154Z,72.50
2022-12-18T03:25:43.002Z,72.64
2022-12-18T03:28:17.670Z,72.57
2022-12-18T03:30:48.305Z,72.54
2022-12-18T03:33:33.930Z,72.40
2022-12-18T03:36:02.029Z,72.34
2022-12-18T03:38:29.793Z,72.47
2022-12-18T03:41:11.238Z,72.57
2022-12-18T03:43:54.711Z,72.76
2022-12-18T03:46:22.154Z,73.00
2022-12-18T03:49:06.890Z,72.98
2022-12-18T03:51:51.665Z,73.03
2022-12-18T03:54:21.090Z,73.10
2022-12-18T03:56:56.094Z,73.13
2022-12-18T03:59:25.687Z,73.09
2022-12-18T04:01:56.557Z,72.99
2022-12-18T04:04:25.815Z,72.79
2022-12-18T04:06:54.468Z,72.84
2022-12-18T04:09:22.726Z,72.77
2022-12-18T04:11:50.202Z,72.81
2022-12-18T04:14:18.413Z,72.84
2022-12-18T04:16:46.146Z,72.80
2022-12-18T04:19:13.807Z,72.80
2022-12-18T04:21:41.290Z,72.81
2022-12-18T04:24:09.401Z,72.94
2022-12-18T04:26:37.234Z,73.02
2022-12-18T04:29:05.333Z,72.95
2022-12-18T04:31:32.928Z,73.05
2022-12-18T04:34:00.684Z,73.18
2022-12-18T04:36:28.371Z,73.05
2022-12-18T04:38:56.489Z,72.98
2022-12-18T04:41:23.969Z,72.99
2022-12-18T04:43:51.402Z,72.86
2022-12-18T04:46:19.026Z,72.67
2022-12-18T04:48:47.817Z,72.50
2022-12-18T04:51:15.672Z,72.66
2022-12-18T04:53:43.422Z,72.76
2022-12-18T04:56:14.464Z,72.47
2022-12-18T04:58:43.965Z,72.62
2022-12-18T05:01:13.551Z,72.83
2022-12-18T05:03:42.169Z,72.81
2022-12-18T05:06:10.631Z,72.76
2022-12-18T05:08:38.231Z,72.74
2022-12-18T05:11:17.189Z,72.80
2022-12-18T05:13:45.802Z,72.78
2022-12-18T05:16:14.586Z,72.86
2022-12-18T05:18:42.515Z,72.99
2022-12-18T05:21:10.301Z,72.91
2022-12-18T05:23:38.806Z,72.90
2022-12-18T05:26:08.632Z,72.99
2022-12-18T05:28:37.044Z,72.73
2022-12-18T05:31:05.705Z,72.60
2022-12-18T05:33:35.528Z,72.67
2022-12-18T05:36:05.393Z,72.74
2022-12-18T05:38:34.802Z,72.81
2022-12-18T05:41:03.100Z,72.85
2022-12-18T05:43:30.679Z,72.84
2022-12-18T05:45:58.544Z,72.83
2022-12-18T05:48:26.037Z,72.74
2022-12-18T05:50:53.496Z,72.54
2022-12-18T05:53:21.488Z,72.55
2022-12-18T05:55:49.052Z,72.87
2022-12-18T05:58:16.983Z,72.65
2022-12-18T06:00:46.809Z,72.70
2022-12-18T06:03:14.785Z,72.60
2022-12-18T06:05:45.302Z,72.70
2022-12-18T06:08:14.073Z,72.65
2022-12-18T06:10:42.378Z,72.68
2022-12-18T06:13:09.849Z,72.70
2022-12-18T06:15:38.484Z,72.76
2022-12-18T06:18:06.068Z,72.76
2022-12-18T06:20:34.230Z,72.76
2022-12-18T06:23:01.772Z,72.77
2022-12-18T06:25:29.360Z,72.81
2022-12-18T06:27:56.811Z,72.73
2022-12-18T06:30:24.501Z,72.72
2022-12-18T06:32:56.573Z,72.77
2022-12-18T06:35:24.809Z,72.69
2022-12-18T06:37:52.382Z,72.78
2022-12-18T06:40:20.541Z,72.77
2022-12-18T06:42:48.003Z,72.70
2022-12-18T06:45:15.603Z,72.67
2022-12-18T06:47:43.113Z,72.69
2022-12-18T06:50:11.399Z,72.78
2022-12-18T06:52:40.383Z,72.79
2022-12-18T06:55:09.575Z,72.74
2022-12-18T06:57:37.113Z,72.63
2022-12-18T07:00:06.864Z,72.71
2022-12-18T07:02:34.840Z,72.58
2022-12-18T07:05:07.469Z,72.52
2022-12-18T07:07:38.104Z,72.42
2022-12-18T07:10:06.005Z,72.35
2022-12-18T07:12:33.625Z,72.49
2022-12-18T07:15:01.112Z,72.38
2022-12-18T07:17:28.657Z,72.50
2022-12-18T07:19:56.131Z,72.48
2022-12-18T07:22:23.590Z,72.41
2022-12-18T07:24:51.046Z,72.42
2022-12-18T07:27:18.520Z,72.36
2022-12-18T07:29:46.040Z,72.25
2022-12-18T07:32:13.782Z,72.38
2022-12-18T07:34:42.251Z,72.60
2022-12-18T07:37:09.702Z,72.49
2022-12-18T07:39:37.191Z,72.60
2022-12-18T07:42:20.926Z,72.71
2022-12-18T07:44:49.042Z,72.68
2022-12-18T07:47:16.495Z,72.72
2022-12-18T07:49:44.002Z,72.72
2022-12-18T07:52:13.222Z,72.71
2022-12-18T07:54:41.397Z,72.83
2022-12-18T07:57:27.313Z,73.01
2022-12-18T07:59:57.274Z,73.04
2022-12-18T08:02:24.930Z,73.02
2022-12-18T08:04:52.507Z,72.80
2022-12-18T08:07:19.963Z,72.96
2022-12-18T08:09:47.494Z,73.09
2022-12-18T08:12:14.960Z,73.09
2022-12-18T08:14:42.403Z,72.95
2022-12-18T08:17:09.908Z,72.97
2022-12-18T08:19:37.338Z,73.21
2022-12-18T08:22:04.793Z,73.22
2022-12-18T08:24:32.468Z,73.26
2022-12-18T08:27:27.913Z,73.19
2022-12-18T08:29:47.726Z,73.37
2022-12-18T08:32:15.557Z,73.43
2022-12-18T08:34:43.140Z,73.27
2022-12-18T08:37:10.581Z,73.14
2022-12-18T08:39:38.234Z,73.22
2022-12-18T08:42:21.717Z,73.35
2022-12-18T08:44:49.241Z,73.23
2022-12-18T08:47:16.686Z,73.22
2022-12-18T08:49:44.256Z,72.98
2022-12-18T08:52:16.216Z,72.90
2022-12-18T08:54:44.163Z,72.94
2022-12-18T08:57:11.909Z,72.92
2022-12-18T08:59:39.697Z,72.99
2022-12-18T09:02:07.602Z,73.12
2022-12-18T09:04:35.523Z,73.07
2022-12-18T09:07:03.134Z,73.16
2022-12-18T09:09:30.682Z,73.13
2022-12-18T09:11:58.256Z,73.14
2022-12-18T09:14:25.812Z,73.19
2022-12-18T09:16:53.357Z,73.14
2022-12-18T09:19:20.904Z,73.15
2022-12-18T09:21:48.730Z,73.07
2022-12-18T09:24:17.216Z,73.01
2022-12-18T09:26:47.447Z,72.90
2022-12-18T09:29:18.731Z,72.91
2022-12-18T09:31:47.540Z,72.99
2022-12-18T09:34:15.131Z,72.95
2022-12-18T09:36:42.591Z,72.93
2022-12-18T09:39:11.469Z,73.03
2022-12-18T09:41:56.868Z,73.04
2022-12-18T09:44:45.292Z,72.92
2022-12-18T09:47:19.763Z,72.71
2022-12-18T09:49:51.955Z,72.55
2022-12-18T09:52:34.322Z,72.81
2022-12-18T09:55:19.296Z,72.50
2022-12-18T09:57:54.177Z,72.69
2022-12-18T10:00:24.151Z,72.72
2022-12-18T10:03:02.430Z,72.66
2022-12-18T10:05:49.525Z,72.48
2022-12-18T10:08:25.691Z,72.56
2022-12-18T10:10:58.466Z,72.98
2022-12-18T10:13:35.946Z,73.01
2022-12-18T10:16:22.696Z,73.20
2022-12-18T10:19:08.770Z,72.80
2022-12-18T10:21:52.216Z,72.70
2022-12-18T10:24:46.231Z,72.89
2022-12-18T10:27:19.203Z,72.56
2022-12-18T10:29:47.356Z,72.29
2022-12-18T10:32:33.180Z,72.21
2022-12-18T10:35:01.283Z,71.78
2022-12-18T10:37:30.848Z,71.68
2022-12-18T10:40:22.370Z,71.95
2022-12-18T10:43:14.403Z,72.02
2022-12-18T10:45:43.550Z,71.70
2022-12-18T10:48:27.753Z,71.52
2022-12-18T10:51:13.078Z,71.62
2022-12-18T10:53:43.963Z,71.81
2022-12-18T10:56:12.559Z,72.04
2022-12-18T10:58:41.377Z,71.65
2022-12-18T11:01:25.400Z,71.63
2022-12-18T11:04:01.678Z,72.01
2022-12-18T11:06:36.430Z,71.93
2022-12-18T11:09:20.472Z,72.14
2022-12-18T11:11:57.150Z,72.03
2022-12-18T11:14:33.155Z,72.29
2022-12-18T11:19:58.726Z,72.17
2022-12-18T11:22:33.046Z,72.18
2022-12-18T11:25:35.777Z,72.33
2022-12-18T11:28:43.816Z,72.42
2022-12-18T11:31:33.710Z,72.51
2022-12-18T11:34:32.616Z,72.52
2022-12-18T11:37:04.439Z,72.43
2022-12-18T11:39:38.127Z,72.26
2022-12-18T11:42:36.982Z,72.45
2022-12-18T11:45:34.156Z,72.52
2022-12-18T11:48:14.324Z,72.43
2022-12-18T11:50:57.968Z,72.37
2022-12-18T11:53:27.764Z,72.35
2022-12-18T11:56:11.582Z,72.19
2022-12-18T11:58:51.038Z,72.28
2022-12-18T12:01:43.917Z,71.95
2022-12-18T12:04:44.216Z,71.65
2022-12-18T12:07:31.450Z,72.17
2022-12-18T12:10:01.656Z,72.37
2022-12-18T12:12:49.454Z,72.32
2022-12-18T12:15:42.943Z,72.15
2022-12-18T12:18:33.635Z,71.85
2022-12-18T12:21:33.491Z,72.13
2022-12-18T12:24:08.994Z,72.23
2022-12-18T12:27:03.501Z,72.25
2022-12-18T12:30:03.029Z,72.36
2022-12-18T12:32:36.645Z,72.39
2022-12-18T12:35:20.780Z,72.43
2022-12-18T12:38:09.939Z,72.60
2022-12-18T12:40:53.919Z,72.63
2022-12-18T12:43:49.605Z,72.65
2022-12-18T12:46:23.046Z,72.65
2022-12-18T12:48:57.791Z,72.59
2022-12-18T12:51:44.241Z,72.51
2022-12-18T12:54:23.419Z,72.67
2022-12-18T12:57:14.226Z,72.70
2022-12-18T13:00:15.559Z,72.28
2022-12-18T13:02:52.651Z,72.36
2022-12-18T13:05:35.708Z,72.50
2022-12-18T13:08:07.316Z,72.43
2022-12-18T13:10:45.848Z,72.51
2022-12-18T13:13:22.319Z,72.49
2022-12-18T13:16:09.150Z,72.49
2022-12-18T13:18:36.887Z,72.30
2022-12-18T13:21:33.407Z,72.37
2022-12-18T13:24:27.027Z,72.35
2022-12-18T13:26:55.146Z,72.35
2022-12-18T13:29:41.999Z,72.44
2022-12-18T13:32:28.881Z,72.48
2022-12-18T13:35:38.980Z,72.63
2022-12-18T13:38:23.204Z,72.76
2022-12-18T13:40:51.686Z,72.61
2022-12-18T13:43:22.883Z,72.61
2022-12-18T13:46:02.325Z,72.66
2022-12-18T13:48:34.022Z,72.65
2022-12-18T13:51:12.185Z,72.76
2022-12-18T13:53:47.510Z,72.85
2022-12-18T13:56:24.143Z,72.95
2022-12-18T13:59:16.677Z,72.98
2022-12-18T14:01:49.542Z,72.77
2022-12-18T14:04:36.457Z,72.67
2022-12-18T14:07:08.267Z,72.60
2022-12-18T14:09:41.010Z,72.70
2022-12-18T14:12:33.749Z,72.78
2022-12-18T14:15:01.590Z,72.83
2022-12-18T14:17:29.217Z,72.75
2022-12-18T14:19:57.143Z,72.87
2022-12-18T14:22:31.038Z,72.72
2022-12-18T14:25:17.764Z,72.65
2022-12-18T14:27:49.411Z,72.40
2022-12-18T14:30:36.048Z,72.32
2022-12-18T14:33:11.910Z,72.41
2022-12-18T14:36:01.934Z,72.39
2022-12-18T14:38:38.784Z,72.53
2022-12-18T14:41:15.945Z,72.56
2022-12-18T14:43:48.134Z,72.62
2022-12-18T14:46:36.583Z,72.60
2022-12-18T14:49:19.564Z,72.54
2022-12-18T14:51:50.833Z,72.63
2022-12-18T14:54:20.993Z,72.70
2022-12-18T14:56:52.432Z,72.71
2022-12-18T14:59:26.827Z,72.98
2022-12-18T15:02:14.711Z,72.94
2022-12-18T15:04:44.969Z,72.92
2022-12-18T15:07:19.327Z,72.94
2022-12-18T15:10:05.082Z,72.89
2022-12-18T15:12:37.436Z,72.82
2022-12-18T15:15:06.743Z,72.67
2022-12-18T15:17:34.607Z,72.41
2022-12-18T15:20:10.772Z,72.49
2022-12-18T15:22:39.208Z,72.58
2022-12-18T15:25:33.581Z,72.58
2022-12-18T15:28:01.631Z,72.63
2022-12-18T15:30:30.332Z,72.64
2022-12-18T15:33:26.148Z,72.58
2022-12-18T15:36:03.842Z,72.61
2022-12-18T15:38:33.007Z,72.70
2022-12-18T15:41:01.462Z,72.82
2022-12-18T15:43:35.821Z,72.79
2022-12-18T15:46:06.154Z,72.52
2022-12-18T15:48:36.866Z,72.68
2022-12-18T15:51:10.548Z,72.55
2022-12-18T15:53:40.046Z,72.43
2022-12-18T15:56:29.196Z,72.42
2022-12-18T15:58:58.604Z,72.43
2022-12-18T16:01:29.525Z,72.64
2022-12-18T16:03:58.124Z,72.68
2022-12-18T16:06:25.843Z,72.64
2022-12-18T16:08:53.503Z,72.54
2022-12-18T16:11:43.439Z,72.47
2022-12-18T16:14:25.156Z,72.48
2022-12-18T16:16:57.956Z,72.41
2022-12-18T16:19:26.122Z,72.42
2022-12-18T16:21:56.226Z,72.28
2022-12-18T16:24:26.983Z,72.30
2022-12-18T16:26:55.469Z,72.20
2022-12-18T16:29:27.823Z,72.29
2022-12-18T16:31:56.638Z,72.46
2022-12-18T16:34:29.541Z,72.46
2022-12-18T16:37:04.826Z,72.53
2022-12-18T16:39:35.353Z,72.58
2022-12-18T16:42:17.546Z,72.59
2022-12-18T16:44:47.248Z,72.76
2022-12-18T16:47:15.845Z,72.55
2022-12-18T16:49:46.141Z,72.48
2022-12-18T16:52:15.048Z,72.42
2022-12-18T16:54:42.579Z,72.45
2022-12-18T16:57:14.449Z,72.45
2022-12-18T16:59:42.788Z,72.48
2022-12-18T17:02:15.954Z,72.46
2022-12-18T17:04:45.569Z,72.36
2022-12-18T17:07:13.657Z,72.47
2022-12-18T17:09:42.468Z,72.44
2022-12-18T17:12:10.613Z,72.41
2022-12-18T17:14:38.342Z,72.46
2022-12-18T17:17:22.966Z,72.56
2022-12-18T17:19:52.676Z,72.59
2022-12-18T17:22:23.699Z,72.75
2022-12-18T17:24:51.676Z,72.79
2022-12-18T17:27:19.580Z,72.74
2022-12-18T17:29:48.644Z,72.77
2022-12-18T17:32:18.006Z,72.80
2022-12-18T17:34:46.404Z,72.86
2022-12-18T17:37:14.271Z,72.82
2022-12-18T17:39:42.194Z,72.91
2022-12-18T17:42:12.071Z,72.93
2022-12-18T17:44:44.213Z,73.01
2022-12-18T17:47:13.527Z,73.05
2022-12-18T17:49:41.231Z,72.79
2022-12-18T17:52:09.705Z,72.64
2022-12-18T17:54:41.560Z,72.74
2022-12-18T17:57:11.178Z,72.66
2022-12-18T17:59:38.787Z,72.61
2022-12-18T18:02:07.865Z,72.46
2022-12-18T18:04:36.151Z,72.35
2022-12-18T18:07:03.702Z,72.42
2022-12-18T18:09:31.419Z,72.46
2022-12-18T18:12:15.547Z,72.53
2022-12-18T18:14:43.559Z,72.69
2022-12-18T18:17:11.338Z,72.82
2022-12-18T18:19:39.373Z,72.92
2022-12-18T18:22:08.248Z,72.89
2022-12-18T18:24:35.857Z,72.77
2022-12-18T18:27:03.688Z,72.49
2022-12-18T18:29:32.120Z,72.57
2022-12-18T18:32:00.129Z,72.52
2022-12-18T18:34:31.219Z,72.35
2022-12-18T18:37:01.184Z,72.30
2022-12-18T18:39:29.770Z,72.25
2022-12-18T18:41:57.674Z,72.27
2022-12-18T18:44:26.476Z,72.28
2022-12-18T18:46:59.024Z,72.40
2022-12-18T18:49:28.278Z,72.58
2022-12-18T18:51:57.525Z,72.70
2022-12-18T18:54:26.376Z,72.61
2022-12-18T18:59:44.555Z,72.43
2022-12-18T19:02:14.187Z,72.19
2022-12-18T19:04:45.854Z,72.21
2022-12-18T19:07:18.204Z,72.28
2022-12-18T19:10:04.092Z,72.33
2022-12-18T19:12:50.350Z,72.24
2022-12-18T19:15:18.322Z,72.29
2022-12-18T19:17:47.089Z,72.19
2022-12-18T19:20:16.179Z,72.20
2022-12-18T19:22:47.970Z,72.31
2022-12-18T19:25:38.404Z,72.37
2022-12-18T19:28:10.006Z,72.30
2022-12-18T19:30:50.320Z,72.23
2022-12-18T19:36:23.614Z,72.30
2022-12-18T19:38:53.766Z,72.26
2022-12-18T19:41:23.282Z,72.36
2022-12-18T19:43:52.396Z,72.36
2022-12-18T19:46:22.334Z,72.37
2022-12-18T19:48:50.557Z,72.42
2022-12-18T19:51:22.320Z,72.38
2022-12-18T19:53:55.083Z,72.41
2022-12-18T19:56:29.724Z,72.53
2022-12-18T19:58:58.659Z,72.55
2022-12-18T20:01:28.428Z,72.35
2022-12-18T20:03:57.470Z,72.42
2022-12-18T20:06:32.144Z,72.49
2022-12-18T20:09:05.499Z,72.38
2022-12-18T20:11:39.635Z,72.47
2022-12-18T20:14:11.107Z,72.68
2022-12-18T20:16:39.823Z,72.62
2022-12-18T20:19:10.083Z,72.76
2022-12-18T20:21:38.965Z,72.33
2022-12-18T20:24:08.311Z,72.33
2022-12-18T20:26:35.966Z,72.45
2022-12-18T20:29:03.547Z,72.49
2022-12-18T20:31:31.173Z,72.56
2022-12-18T20:34:01.470Z,72.56
2022-12-18T20:36:30.808Z,72.44
2022-12-18T20:39:02.674Z,72.50
2022-12-18T20:41:38.780Z,72.41
2022-12-18T20:44:21.675Z,72.24
2022-12-18T20:46:55.459Z,72.20
2022-12-18T20:49:24.544Z,72.18
2022-12-18T20:51:54.114Z,72.26
2022-12-18T20:54:22.951Z,72.15
2022-12-18T20:56:50.631Z,71.87
2022-12-18T20:59:19.643Z,72.01
2022-12-18T21:01:48.418Z,72.29
2022-12-18T21:04:18.876Z,72.41
2022-12-18T21:06:52.916Z,72.44
2022-12-18T21:09:22.377Z,72.57
2022-12-18T21:12:06.325Z,72.46
2022-12-18T21:14:34.246Z,72.33
2022-12-18T21:17:02.348Z,72.31
2022-12-18T21:19:30.082Z,72.24
2022-12-18T21:21:58.081Z,72.25
2022-12-18T21:24:26.591Z,72.35
2022-12-18T21:26:56.448Z,72.42
2022-12-18T21:29:26.060Z,72.55
2022-12-18T21:31:54.638Z,72.56
2022-12-18T21:34:26.422Z,72.57
2022-12-18T21:36:56.169Z,72.50
2022-12-18T21:39:25.588Z,72.38
2022-12-18T21:42:09.086Z,72.47
2022-12-18T21:44:41.878Z,72.47
2022-12-18T21:47:21.908Z,72.49
2022-12-18T21:49:53.971Z,72.70
2022-12-18T21:52:31.911Z,72.75
2022-12-18T21:55:08.492Z,72.59
2022-12-18T21:57:39.042Z,72.49
2022-12-18T22:00:10.383Z,72.43
2022-12-18T22:02:40.238Z,72.34
2022-12-18T22:05:08.931Z,72.47
2022-12-18T22:07:36.416Z,72.50
2022-12-18T22:10:04.130Z,72.69
2022-12-18T22:12:44.206Z,72.59
2022-12-18T22:15:18.302Z,72.58
2022-12-18T22:17:56.957Z,72.63
2022-12-18T22:20:29.684Z,72.76
2022-12-18T22:22:58.510Z,72.87
2022-12-18T22:25:26.031Z,72.78
2022-12-18T22:28:09.527Z,72.57
2022-12-18T22:30:37.016Z,72.79
2022-12-18T22:33:04.923Z,72.84
2022-12-18T22:35:32.406Z,72.77
2022-12-18T22:38:00.109Z,72.82
2022-12-18T22:40:28.227Z,72.77
2022-12-18T22:42:56.128Z,72.64
2022-12-18T22:45:25.429Z,72.50
2022-12-18T22:47:53.066Z,72.50
2022-12-18T22:50:20.831Z,72.64
2022-12-18T22:52:48.287Z,72.62
2022-12-18T22:55:15.920Z,72.76
2022-12-18T22:57:48.484Z,72.72
2022-12-18T23:00:18.660Z,72.85
2022-12-18T23:02:59.833Z,72.78
2022-12-18T23:05:30.388Z,72.76
2022-12-18T23:07:58.645Z,72.72
2022-12-18T23:10:27.537Z,72.57
2022-12-18T23:12:55.173Z,72.47
2022-12-18T23:15:27.717Z,72.50
2022-12-18T23:17:59.458Z,72.58
2022-12-18T23:20:27.546Z,72.34
2022-12-18T23:22:55.041Z,72.27
2022-12-18T23:25:22.713Z,72.25
2022-12-18T23:27:50.911Z,72.09
2022-12-18T23:30:18.990Z,71.98
2022-12-18T23:32:46.557Z,72.08
2022-12-18T23:35:15.870Z,72.16
2022-12-18T23:38:00.492Z,72.25
2022-12-18T23:40:29.777Z,72.36
2022-12-18T23:42:58.998Z,72.42
2022-12-18T23:45:26.472Z,72.46
2022-12-18T23:47:53.954Z,72.61
2022-12-18T23:50:22.751Z,72.72
2022-12-18T23:53:02.068Z,72.49
2022-12-18T23:55:38.735Z,72.24
2022-12-18T23:58:07.420Z,72.23
